Time;durP1;ratioP1;P1;durP2;ratioP2;P2;SDS_P1;SDS_P2;PMS_P1;PMS_P2;Temp;Humidity;BMP_temperature;BMP_pressure;BME280_temperature;BME280_humidity;BME280_pressure;Samples;Min_cycle;Max_cycle;Signal;HPM_P1;HPM_P2
2023/06/10 00:01:49;;;;;;;4.90;3.40;;;;;;;18.18;100.00;99392.69;108573;1251;59758;-71
2023/06/10 00:04:16;;;;;;;4.10;3.50;;;;;;;18.17;100.00;99391.20;108576;1251;59707;-71
2023/06/10 00:06:44;;;;;;;;;;;;;;;18.13;100.00;99389.93;108586;1254;72948;-69
2023/06/10 00:09:13;;;;;;;4.70;3.80;;;;;;;18.07;100.00;99389.98;108589;1251;68141;-69
2023/06/10 00:11:42;;;;;;;4.80;4.10;;;;;;;18.04;100.00;99388.85;108635;1251;71341;-70
2023/06/10 00:14:10;;;;;;;;;;;;;;;18.04;100.00;99388.86;108441;1254;59916;-70
2023/06/10 00:16:38;;;;;;;;;;;;;;;18.03;100.00;99388.41;108436;1251;59488;-69
2023/06/10 00:19:07;;;;;;;4.70;3.60;;;;;;;17.98;100.00;99388.41;108479;1252;73766;-70
2023/06/10 00:21:40;;;;;;;5.90;3.60;;;;;;;17.96;100.00;99385.09;108509;1251;69145;-70
2023/06/10 00:24:11;;;;;;;4.60;4.20;;;;;;;17.95;100.00;99386.16;108456;1254;72971;-72
2023/06/10 00:26:40;;;;;;;4.10;3.70;;;;;;;17.94;100.00;99384.81;108410;1253;59123;-72
2023/06/10 00:29:08;;;;;;;5.30;4.20;;;;;;;17.94;100.00;99380.02;108567;1252;60271;-71
2023/06/10 00:31:37;;;;;;;9.50;4.30;;;;;;;17.94;100.00;99379.86;108673;1251;73686;-70
2023/06/10 00:34:07;;;;;;;7.90;4.40;;;;;;;17.93;100.00;99378.20;108454;1251;68595;-72
2023/06/10 00:36:35;;;;;;;4.20;3.80;;;;;;;17.91;100.00;99377.27;108534;1251;72313;-72
2023/06/10 00:39:04;;;;;;;7.30;4.20;;;;;;;17.88;100.00;99373.73;108355;1251;60719;-70
2023/06/10 00:41:33;;;;;;;5.90;4.20;;;;;;;17.85;100.00;99375.77;108520;1251;59704;-72
2023/06/10 00:44:01;;;;;;;4.40;4.00;;;;;;;17.83;100.00;99373.25;108403;1252;74281;-71
2023/06/10 00:46:29;;;;;;;8.20;4.30;;;;;;;17.82;100.00;99367.48;108466;1252;69222;-71
2023/06/10 00:48:56;;;;;;;;;;;;;;;17.82;100.00;99368.67;108377;1251;72901;-72
2023/06/10 00:51:25;;;;;;;;;;;;;;;17.81;100.00;99370.90;108476;1254;59405;-71
2023/06/10 00:53:52;;;;;;;4.40;3.60;;;;;;;17.77;100.00;99367.85;108401;1251;60546;-70
2023/06/10 00:56:20;;;;;;;5.80;3.70;;;;;;;17.73;100.00;99369.20;108489;1252;73673;-70
2023/06/10 00:58:48;;;;;;;9.10;4.20;;;;;;;17.71;100.00;99368.27;108608;1253;69629;-70
2023/06/10 01:01:16;;;;;;;5.80;3.90;;;;;;;17.70;100.00;99369.23;108529;1251;72963;-69
2023/06/10 01:03:45;;;;;;;5.50;3.80;;;;;;;17.70;100.00;99367.49;108565;1254;59878;-70
2023/06/10 01:06:33;;;;;;;6.20;3.80;;;;;;;17.69;100.00;99368.80;108599;1251;60671;-69
2023/06/10 01:09:00;;;;;;;;;;;;;;;17.71;100.00;99372.00;108601;1252;74472;-70
2023/06/10 01:11:30;;;;;;;4.80;3.60;;;;;;;17.70;100.00;99370.98;108625;1250;68292;-69
2023/06/10 01:13:58;;;;;;;5.50;4.20;;;;;;;17.72;100.00;99374.24;108305;1251;71534;-69
2023/06/10 01:16:28;;;;;;;5.50;4.50;;;;;;;17.74;100.00;99376.10;108170;1251;59951;-71
2023/06/10 01:18:56;;;;;;;6.80;3.80;;;;;;;17.73;100.00;99375.80;108449;1253;59670;-70
2023/06/10 01:21:26;;;;;;;4.50;4.20;;;;;;;17.73;100.00;99378.84;108543;1251;74083;-70
2023/06/10 01:23:55;;;;;;;7.40;4.30;;;;;;;17.73;100.00;99378.43;108392;1254;68079;-70
2023/06/10 01:26:26;;;;;;;5.30;4.20;;;;;;;17.71;100.00;99379.81;108367;1251;72888;-70
2023/06/10 01:29:17;;;;;;;9.90;4.60;;;;;;;17.69;100.00;99382.65;108363;1251;59760;-71
2023/06/10 01:31:58;;;;;;;4.50;3.90;;;;;;;17.71;100.00;99386.23;108293;1251;59757;-70
2023/06/10 01:34:25;;;;;;;9.60;4.40;;;;;;;17.68;100.00;99387.52;108461;1251;73582;-67
2023/06/10 01:36:53;;;;;;;7.20;4.30;;;;;;;17.66;100.00;99385.67;108545;1251;69176;-67
2023/06/10 01:39:22;;;;;;;5.60;4.80;;;;;;;17.63;100.00;99391.61;108534;1251;72889;-66
2023/06/10 01:41:50;;;;;;;6.30;4.50;;;;;;;17.61;100.00;99394.05;108242;1251;59965;-68
2023/06/10 01:44:21;;;;;;;5.00;4.20;;;;;;;17.59;100.00;99391.23;108526;1251;60097;-67
2023/06/10 01:46:49;;;;;;;6.10;4.70;;;;;;;17.54;100.00;99391.08;108601;1251;72566;-68
2023/06/10 01:49:17;;;;;;;5.20;4.70;;;;;;;17.48;100.00;99386.54;108613;1251;69284;-69
2023/06/10 01:51:45;;;;;;;4.40;4.00;;;;;;;17.43;100.00;99388.29;108649;1251;72477;-68
2023/06/10 01:54:12;;;;;;;7.70;5.20;;;;;;;17.38;100.00;99390.13;108651;1251;59827;-69
2023/06/10 01:56:40;;;;;;;4.90;4.40;;;;;;;17.33;100.00;99384.50;108658;1251;58786;-68
2023/06/10 01:59:08;;;;;;;8.40;4.60;;;;;;;17.29;100.00;99384.27;108667;1251;73646;-70
2023/06/10 02:01:36;;;;;;;8.60;4.40;;;;;;;17.26;100.00;99384.29;108501;1251;69783;-67
2023/06/10 02:04:03;;;;;;;7.50;5.00;;;;;;;17.22;100.00;99387.39;108605;1254;72465;-68
2023/06/10 02:06:31;;;;;;;5.40;4.70;;;;;;;17.21;100.00;99390.66;108635;1253;59802;-67
2023/06/10 02:08:59;;;;;;;7.50;5.00;;;;;;;17.19;100.00;99389.59;108649;1251;59806;-67
2023/06/10 02:11:29;;;;;;;7.50;4.70;;;;;;;17.17;100.00;99392.05;108541;1251;73419;-68
2023/06/10 02:13:57;;;;;;;10.90;5.20;;;;;;;17.14;100.00;99391.00;108522;1251;69070;-67
2023/06/10 02:16:26;;;;;;;7.50;4.80;;;;;;;17.11;100.00;99394.73;108516;1251;71867;-68
2023/06/10 02:18:55;;;;;;;9.90;5.50;;;;;;;17.09;100.00;99392.76;108434;1251;61578;-70
2023/06/10 02:21:23;;;;;;;11.20;5.10;;;;;;;17.11;100.00;99392.66;108480;1251;58738;-68
2023/06/10 02:23:50;;;;;;;7.90;5.30;;;;;;;17.10;100.00;99391.84;108530;1251;75090;-68
2023/06/10 02:26:18;;;;;;;6.80;5.50;;;;;;;17.10;100.00;99392.35;108446;1251;69353;-68
2023/06/10 02:28:45;;;;;;;8.30;5.10;;;;;;;17.10;100.00;99394.11;108538;1251;72550;-68
2023/06/10 02:31:13;;;;;;;;;;;;;;;17.14;100.00;99397.90;108499;1251;61793;-68
2023/06/10 02:33:41;;;;;;;5.70;5.20;;;;;;;17.18;100.00;99393.41;108600;1251;58628;-69
2023/06/10 02:36:13;;;;;;;12.40;5.60;;;;;;;17.21;100.00;99396.19;108502;1251;74037;-74
2023/06/10 02:38:41;;;;;;;7.20;5.50;;;;;;;17.27;100.00;99400.30;108498;1251;69450;-68
2023/06/10 02:41:10;;;;;;;6.50;5.30;;;;;;;17.33;100.00;99401.64;108534;1251;72921;-68
2023/06/10 02:43:37;;;;;;;7.40;5.30;;;;;;;17.39;100.00;99402.13;108603;1251;60334;-69
2023/06/10 02:46:05;;;;;;;8.00;5.50;;;;;;;17.43;100.00;99399.30;108325;1251;59806;-68
2023/06/10 02:48:40;;;;;;;7.60;5.50;;;;;;;17.46;100.00;99399.43;108378;1251;73586;-68
2023/06/10 02:51:08;;;;;;;6.60;5.10;;;;;;;17.51;100.00;99404.16;108147;1251;69542;-68
2023/06/10 02:53:39;;;;;;;7.70;5.60;;;;;;;17.56;100.00;99407.41;108471;1251;73176;-69
2023/06/10 02:56:09;;;;;;;5.60;5.10;;;;;;;17.57;100.00;99406.04;108354;1251;61584;-68
2023/06/10 02:58:37;;;;;;;7.90;5.30;;;;;;;17.63;100.00;99407.05;108555;1251;60663;-68
2023/06/10 03:01:05;;;;;;;6.20;5.60;;;;;;;17.74;100.00;99405.29;108611;1251;74105;-68
2023/06/10 03:03:42;;;;;;;9.30;5.70;;;;;;;17.78;100.00;99408.16;108457;1253;68282;-67
2023/06/10 03:06:12;;;;;;;8.00;6.00;;;;;;;17.84;100.00;99405.26;108609;1251;72311;-66
2023/06/10 03:08:40;;;;;;;8.10;5.80;;;;;;;17.90;100.00;99404.43;108590;1250;61399;-67
2023/06/10 03:11:11;;;;;;;8.10;5.50;;;;;;;17.94;100.00;99409.66;108672;1251;59796;-68
2023/06/10 03:13:40;;;;;;;8.20;5.80;;;;;;;17.97;100.00;99411.77;108516;1251;73651;-68
2023/06/10 03:16:09;;;;;;;8.80;5.80;;;;;;;18.05;100.00;99412.02;108509;1251;69588;-67
2023/06/10 03:18:37;;;;;;;7.70;5.90;;;;;;;18.12;100.00;99415.05;108471;1251;72481;-68
2023/06/10 03:21:05;;;;;;;8.40;5.20;;;;;;;18.13;100.00;99409.62;108368;1251;61682;-68
2023/06/10 03:23:33;;;;;;;12.10;6.00;;;;;;;18.15;100.00;99412.46;108356;1251;58752;-69
2023/06/10 03:26:02;;;;;;;5.90;5.30;;;;;;;18.18;100.00;99415.98;108335;1251;72795;-69
2023/06/10 03:28:30;;;;;;;11.60;5.60;;;;;;;18.21;100.00;99411.41;108412;1251;70030;-69
2023/06/10 03:30:58;;;;;;;9.10;5.20;;;;;;;18.26;100.00;99409.45;108575;1251;72958;-69
2023/06/10 03:33:26;;;;;;;;;;;;;;;18.29;100.00;99409.80;108415;1250;268741;-72
2023/06/10 03:37:08;;;;;;;8.60;6.00;;;;;;;18.14;100.00;99412.89;101033;1297;602093;-70
2023/06/10 03:39:36;;;;;;;6.90;5.20;;;;;;;18.35;100.00;99414.66;103901;1266;61484;-74
2023/06/10 03:42:05;;;;;;;14.50;6.30;;;;;;;18.46;100.00;99416.98;104132;1264;59618;-73
2023/06/10 03:44:33;;;;;;;6.70;5.50;;;;;;;18.55;100.00;99416.23;104037;1267;71935;-73
2023/06/10 03:47:01;;;;;;;;;;;;;;;18.62;100.00;99423.84;104191;1266;70476;-69
2023/06/10 03:49:29;;;;;;;6.90;5.40;;;;;;;18.63;100.00;99426.80;104005;1268;72926;-68
2023/06/10 03:52:00;;;;;;;11.40;6.00;;;;;;;18.69;100.00;99426.16;103848;1261;61945;-69
2023/06/10 03:54:27;;;;;;;;;;;;;;;18.73;100.00;99427.56;104126;1263;59761;-69
2023/06/10 03:56:56;;;;;;;6.90;5.50;;;;;;;18.77;100.00;99428.31;103967;1266;72073;-67
2023/06/10 03:59:23;;;;;;;7.70;5.60;;;;;;;18.83;100.00;99426.81;103854;1267;69352;-67
2023/06/10 04:01:51;;;;;;;10.80;6.40;;;;;;;18.91;100.00;99428.48;104106;1260;72449;-67
2023/06/10 04:04:19;;;;;;;;;;;;;;;18.97;100.00;99424.84;104052;1260;60527;-71
2023/06/10 04:06:48;;;;;;;9.20;5.90;;;;;;;19.00;100.00;99421.20;104032;1269;59635;-68
2023/06/10 04:09:16;;;;;;;7.70;5.70;;;;;;;19.03;100.00;99423.27;104102;1264;72849;-68
2023/06/10 04:11:44;;;;;;;9.90;6.50;;;;;;;19.09;100.00;99424.94;103742;1267;69331;-67
2023/06/10 04:14:13;;;;;;;9.90;6.50;;;;;;;19.16;100.00;99428.65;104062;1266;72677;-69
2023/06/10 04:16:43;;;;;;;8.90;5.60;;;;;;;19.23;100.00;99429.59;104187;1259;61716;-70
2023/06/10 04:19:11;;;;;;;6.90;6.20;;;;;;;19.31;100.00;99429.14;104363;1264;59749;-68
2023/06/10 04:21:39;;;;;;;7.50;6.20;;;;;;;19.40;100.00;99425.18;104149;1264;72135;-69
2023/06/10 04:24:07;;;;;;;;;;;;;;;19.51;100.00;99422.73;104175;1260;69694;-69
2023/06/10 04:26:35;;;;;;;6.60;5.90;;;;;;;19.59;100.00;99418.61;104336;1264;72456;-72
2023/06/10 04:29:04;;;;;;;7.10;5.80;;;;;;;19.67;100.00;99418.30;104228;1263;62059;-70
2023/06/10 04:31:32;;;;;;;7.60;5.50;;;;;;;19.79;100.00;99421.45;104044;1266;59685;-70
2023/06/10 04:34:00;;;;;;;5.50;4.90;;;;;;;19.89;100.00;99420.94;103869;1267;73759;-71
2023/06/10 04:36:29;;;;;;;7.20;5.60;;;;;;;19.98;100.00;99420.90;104230;1273;70030;-69
2023/06/10 04:38:57;;;;;;;10.40;5.70;;;;;;;20.10;100.00;99424.46;104167;1279;72372;-70
2023/06/10 04:41:27;;;;;;;6.50;4.70;;;;;;;20.26;100.00;99428.27;103898;1266;61872;-72
2023/06/10 04:43:55;;;;;;;5.70;5.20;;;;;;;20.42;100.00;99425.52;104312;1261;60070;-70
2023/06/10 04:46:24;;;;;;;6.40;4.90;;;;;;;20.52;100.00;99424.30;104421;1257;71980;-70
2023/06/10 04:48:51;;;;;;;6.00;5.10;;;;;;;20.55;100.00;99426.60;104328;1276;69749;-73
2023/06/10 04:51:19;;;;;;;7.90;5.20;;;;;;;20.66;100.00;99429.69;105146;1261;72504;-70
2023/06/10 04:53:47;;;;;;;6.50;5.10;;;;;;;20.82;100.00;99426.64;104240;1262;61804;-68
2023/06/10 04:56:16;;;;;;;;;;;;;;;20.89;100.00;99427.47;104619;1261;59916;-73
2023/06/10 04:58:43;;;;;;;6.50;4.80;;;;;;;20.95;100.00;99428.84;104601;1261;72814;-70
2023/06/10 05:01:11;;;;;;;6.70;5.20;;;;;;;20.98;100.00;99423.36;104317;1266;68117;-69
2023/06/10 05:03:39;;;;;;;5.00;4.50;;;;;;;21.03;100.00;99419.83;104571;1262;72485;-70
2023/06/10 05:06:06;;;;;;;;;;;;;;;21.06;100.00;99418.27;104298;1264;61504;-69
2023/06/10 05:08:34;;;;;;;;;;;;;;;21.12;100.00;99419.64;104285;1257;59733;-67
2023/06/10 05:11:02;;;;;;;;;;;;;;;21.19;100.00;99422.77;104142;1264;73301;-68
2023/06/10 05:13:29;;;;;;;8.20;4.70;;;;;;;21.27;100.00;99416.90;104238;1257;68677;-68
2023/06/10 05:15:57;;;;;;;5.30;4.60;;;;;;;21.32;100.00;99414.96;104147;1280;71216;-67
2023/06/10 05:18:25;;;;;;;9.00;4.60;;;;;;;21.32;100.00;99416.93;106184;1257;61807;-70
2023/06/10 05:20:53;;;;;;;5.00;4.40;;;;;;;21.40;100.00;99411.45;106448;1257;59845;-70
2023/06/10 05:23:21;;;;;;;6.10;4.40;;;;;;;21.49;100.00;99409.96;104638;1257;71938;-68
2023/06/10 05:25:49;;;;;;;;;;;;;;;21.61;100.00;99412.40;105747;1258;70761;-70
2023/06/10 05:28:16;;;;;;;;;;;;;;;21.72;100.00;99411.22;105276;1257;72382;-69
2023/06/10 05:30:44;;;;;;;5.20;4.30;;;;;;;21.80;100.00;99407.80;104833;1264;61533;-70
2023/06/10 05:33:12;;;;;;;12.60;5.20;;;;;;;21.91;100.00;99409.56;104164;1262;59836;-68
2023/06/10 05:35:40;;;;;;;;;;;;;;;22.04;100.00;99410.70;104632;1257;73094;-72
2023/06/10 05:38:08;;;;;;;6.60;4.50;;;;;;;22.14;100.00;99409.20;104884;1260;68360;-73
2023/06/10 05:40:37;;;;;;;6.70;4.40;;;;;;;22.23;100.00;99412.66;104646;1258;73301;-75
2023/06/10 05:43:05;;;;;;;11.30;4.70;;;;;;;22.32;100.00;99412.35;104343;1257;61648;-71
2023/06/10 05:45:32;;;;;;;5.20;4.10;;;;;;;22.37;100.00;99408.36;104424;1264;59777;-73
2023/06/10 05:48:00;;;;;;;;;;;;;;;22.44;100.00;99408.69;104479;1255;72805;-71
2023/06/10 05:50:28;;;;;;;7.30;4.00;;;;;;;22.52;100.00;99405.25;104441;1254;70033;-71
2023/06/10 05:52:55;;;;;;;6.70;4.10;;;;;;;22.62;100.00;99404.66;104475;1270;72514;-71
2023/06/10 05:55:23;;;;;;;7.40;4.70;;;;;;;22.71;100.00;99403.05;104416;1257;61500;-72
2023/06/10 05:57:58;;;;;;;5.30;4.80;;;;;;;22.80;100.00;99407.23;104377;1263;61119;-73
2023/06/10 06:00:26;;;;;;;5.50;4.00;;;;;;;22.90;100.00;99406.20;104373;1259;72884;-71
2023/06/10 06:02:54;;;;;;;4.60;4.10;;;;;;;22.99;100.00;99404.98;104525;1270;68425;-72
2023/06/10 06:05:22;;;;;;;;;;;;;;;23.09;100.00;99406.54;104395;1273;72403;-71
2023/06/10 06:07:50;;;;;;;5.80;4.00;;;;;;;23.21;100.00;99405.04;104377;1255;61436;-75
2023/06/10 06:10:18;;;;;;;4.70;4.20;;;;;;;23.25;100.00;99407.23;104555;1256;60175;-73
2023/06/10 06:12:45;;;;;;;;;;;;;;;23.31;100.00;99407.59;104501;1260;72228;-71
2023/06/10 06:15:13;;;;;;;;;;;;;;;23.31;100.00;99404.84;104394;1257;69331;-72
2023/06/10 06:17:40;;;;;;;;;;;;;;;23.35;100.00;99401.30;104640;1259;72394;-72
2023/06/10 06:20:09;;;;;;;4.60;4.20;;;;;;;23.47;100.00;99403.61;104794;1259;59752;-73
2023/06/10 06:22:37;;;;;;;4.60;3.60;;;;;;;23.55;100.00;99403.58;104666;1261;59745;-73
2023/06/10 06:25:05;;;;;;;7.70;4.20;;;;;;;23.61;100.00;99402.73;104906;1259;73395;-70
2023/06/10 06:27:33;;;;;;;5.70;4.00;;;;;;;23.69;100.00;99399.11;105047;1260;68315;-72
2023/06/10 06:30:00;;;;;;;;;;;;;;;23.75;100.00;99393.72;104928;1260;72397;-72
2023/06/10 06:32:29;;;;;;;7.00;3.90;;;;;;;23.79;100.00;99397.61;104715;1260;59785;-73
2023/06/10 06:34:58;;;;;;;7.90;4.10;;;;;;;23.83;100.00;99397.42;104358;1260;59923;-73
2023/06/10 06:37:26;;;;;;;5.40;4.20;;;;;;;23.84;100.00;99397.11;104482;1259;73058;-73
2023/06/10 06:40:06;;;;;;;6.90;4.20;;;;;;;23.86;100.00;99398.00;104290;1278;69532;-74
2023/06/10 06:42:34;;;;;;;4.90;4.40;;;;;;;23.88;100.00;99393.66;104583;1259;72963;-72
2023/06/10 06:45:14;;;;;;;9.90;4.60;;;;;;;23.93;100.00;99393.52;104412;1261;59850;-74
2023/06/10 06:47:43;;;;;;;4.30;3.90;;;;;;;23.97;100.00;99393.61;104494;1259;59833;-73
2023/06/10 06:50:11;;;;;;;7.10;3.90;;;;;;;24.02;100.00;99396.33;104369;1260;73044;-72
2023/06/10 06:52:39;;;;;;;6.60;3.80;;;;;;;24.11;100.00;99398.77;104423;1253;68076;-73
2023/06/10 06:55:07;;;;;;;7.70;3.90;;;;;;;24.23;100.00;99396.89;104418;1257;72435;-74
2023/06/10 06:57:36;;;;;;;4.00;3.60;;;;;;;24.32;100.00;99394.80;104360;1260;59807;-73
2023/06/10 07:00:04;;;;;;;5.50;4.10;;;;;;;24.42;100.00;99392.52;104434;1257;60081;-72
2023/06/10 07:02:33;;;;;;;6.60;4.20;;;;;;;24.49;100.00;99392.38;104514;1260;73000;-72
2023/06/10 07:05:01;;;;;;;4.80;3.90;;;;;;;24.57;100.00;99390.30;104521;1270;69082;-71
2023/06/10 07:07:28;;;;;;;5.30;3.80;;;;;;;24.67;100.00;99391.38;104397;1260;72597;-72
2023/06/10 07:09:56;;;;;;;4.40;3.90;;;;;;;24.75;100.00;99388.05;104366;1253;59823;-72
2023/06/10 07:12:24;;;;;;;5.70;4.30;;;;;;;24.81;100.00;99386.41;104449;1263;60282;-72
2023/06/10 07:14:52;;;;;;;;;;;;;;;24.91;100.00;99383.98;104480;1259;72920;-72
2023/06/10 07:17:20;;;;;;;6.30;3.90;;;;;;;25.01;100.00;99380.45;104594;1253;69377;-71
2023/06/10 07:19:48;;;;;;;7.70;3.70;;;;;;;25.12;100.00;99382.85;104723;1256;73515;-71
2023/06/10 07:22:16;;;;;;;6.00;3.70;;;;;;;25.17;100.00;99387.61;104734;1257;59814;-72
2023/06/10 07:24:43;;;;;;;;;;;;;;;25.27;100.00;99377.61;104903;1253;60702;-71
2023/06/10 07:27:11;;;;;;;;;;;;;;;25.32;100.00;99381.10;105070;1254;72743;-71
2023/06/10 07:29:39;;;;;;;8.20;4.40;;;;;;;25.37;100.00;99381.23;104758;1254;69259;-71
2023/06/10 07:32:07;;;;;;;7.80;4.40;;;;;;;25.41;100.00;99376.65;104963;1254;73331;-71
2023/06/10 07:34:35;;;;;;;5.70;4.50;;;;;;;25.49;100.00;99378.54;104416;1254;60214;-71
2023/06/10 07:37:03;;;;;;;7.30;4.00;;;;;;;25.58;100.00;99379.41;104502;1255;59749;-72
2023/06/10 07:39:31;;;;;;;6.50;4.30;;;;;;;25.68;100.00;99384.60;104403;1255;73020;-72
2023/06/10 07:41:58;;;;;;;7.60;4.50;;;;;;;25.78;100.00;99380.11;104387;1271;69255;-71
2023/06/10 07:44:26;;;;;;;10.00;4.20;;;;;;;25.83;100.00;99382.58;104254;1265;71888;-72
2023/06/10 07:46:54;;;;;;;11.60;5.30;;;;;;;25.92;100.00;99383.08;104363;1257;61054;-72
2023/06/10 07:49:21;;;;;;;;;;;;;;;26.04;100.00;99379.29;104455;1259;60537;-69
2023/06/10 07:51:50;;;;;;;;;;;;;;;26.15;100.00;99378.42;104366;1260;74934;-69
2023/06/10 07:54:18;;;;;;;7.60;4.40;;;;;;;26.20;100.00;99375.06;104376;1258;69200;-70
2023/06/10 07:56:45;;;;;;;7.40;4.20;;;;;;;26.25;100.00;99373.10;104481;1257;72421;-71
2023/06/10 07:59:14;;;;;;;7.70;4.10;;;;;;;26.29;100.00;99366.19;104319;1256;60563;-71
2023/06/10 08:01:42;;;;;;;6.50;3.80;;;;;;;26.37;100.00;99368.53;104338;1259;60604;-70
2023/06/10 08:04:10;;;;;;;5.20;4.40;;;;;;;26.49;100.00;99369.70;104363;1253;73646;-71
2023/06/10 08:06:38;;;;;;;6.30;4.10;;;;;;;26.56;100.00;99366.23;104412;1254;69647;-71
2023/06/10 08:09:06;;;;;;;7.10;4.60;;;;;;;26.62;100.00;99368.47;104442;1259;72537;-71
2023/06/10 08:11:34;;;;;;;;;;;;;;;26.68;100.00;99362.77;104443;1259;60562;-71
2023/06/10 08:14:04;;;;;;;9.70;4.70;;;;;;;26.80;100.00;99368.21;104454;1257;60549;-70
2023/06/10 08:16:32;;;;;;;14.20;4.50;;;;;;;26.94;100.00;99370.07;104420;1260;74185;-71
2023/06/10 08:19:00;;;;;;;;;;;;;;;27.06;100.00;99365.67;104736;1259;69784;-71
2023/06/10 08:21:28;;;;;;;6.80;3.80;;;;;;;27.17;100.00;99367.16;108012;1253;72448;-73
2023/06/10 08:23:56;;;;;;;13.80;4.00;;;;;;;27.26;100.00;99367.38;105004;1254;60447;-71
2023/06/10 08:26:24;;;;;;;10.50;4.60;;;;;;;27.34;100.00;99364.06;104744;1256;60559;-71
2023/06/10 08:28:52;;;;;;;6.10;4.10;;;;;;;27.41;100.00;99368.45;104910;1262;73036;-70
2023/06/10 08:31:20;;;;;;;8.00;3.70;;;;;;;27.50;100.00;99366.02;104730;1258;70022;-71
2023/06/10 08:33:47;;;;;;;;;;;;;;;27.59;100.00;99363.65;104573;1253;72762;-72
2023/06/10 08:36:15;;;;;;;8.90;4.00;;;;;;;27.68;100.00;99363.80;104430;1259;60667;-72
2023/06/10 08:38:43;;;;;;;;;;;;;;;27.73;100.00;99360.92;104483;1259;60440;-71
2023/06/10 08:41:13;;;;;;;4.40;4.00;;;;;;;27.72;100.00;99361.75;104369;1260;73699;-70
2023/06/10 08:43:46;;;;;;;4.90;4.00;;;;;;;27.76;99.14;99361.09;104477;1255;69303;-70
2023/06/10 08:46:13;;;;;;;4.10;3.60;;;;;;;27.83;95.67;99361.87;104149;1257;73019;-71
2023/06/10 08:48:42;;;;;;;;;;;;;;;27.88;91.94;99361.96;104446;1260;59461;-70
2023/06/10 08:51:11;;;;;;;7.50;4.00;;;;;;;27.93;91.34;99360.98;104406;1260;59962;-72
2023/06/10 08:53:46;;;;;;;3.90;3.60;;;;;;;27.99;93.19;99359.67;104569;1254;74423;-70
2023/06/10 08:56:14;;;;;;;8.20;3.70;;;;;;;28.07;93.28;99363.54;107787;1253;69179;-71
2023/06/10 08:58:43;;;;;;;7.40;3.80;;;;;;;28.07;91.82;99367.33;105758;1256;72355;-71
2023/06/10 09:01:10;;;;;;;4.50;3.50;;;;;;;28.08;92.80;99370.25;104503;1254;60520;-69
2023/06/10 09:03:38;;;;;;;4.40;3.60;;;;;;;28.15;94.51;99370.11;104827;1257;60492;-69
2023/06/10 09:06:06;;;;;;;7.10;4.20;;;;;;;28.25;98.01;99367.84;104709;1259;74462;-71
2023/06/10 09:08:35;;;;;;;;;;;;;;;28.33;99.50;99357.87;104731;1259;69171;-70
2023/06/10 09:11:02;;;;;;;5.20;3.90;;;;;;;28.39;95.80;99358.91;104359;1260;73072;-69
2023/06/10 09:13:30;;;;;;;6.80;4.20;;;;;;;28.35;97.29;99362.30;104417;1259;60572;-71
2023/06/10 09:16:00;;;;;;;4.20;3.80;;;;;;;28.37;95.55;99366.58;104372;1256;60630;-70
2023/06/10 09:18:29;;;;;;;3.90;3.60;;;;;;;28.40;92.52;99359.95;104478;1258;73853;-70
2023/06/10 09:20:57;;;;;;;6.30;4.20;;;;;;;28.44;92.27;99360.17;104748;1258;69162;-70
2023/06/10 09:23:25;;;;;;;;;;;;;;;28.46;91.07;99353.39;104807;1257;73538;-69
2023/06/10 09:25:57;;;;;;;3.90;3.40;;;;;;;28.50;93.49;99352.57;104668;1259;60562;-69
2023/06/10 09:28:25;;;;;;;6.80;3.60;;;;;;;28.61;89.93;99361.66;104739;1257;60580;-71
2023/06/10 09:31:04;;;;;;;4.40;3.90;;;;;;;28.74;87.94;99352.80;104767;1259;73508;-72
2023/06/10 09:33:31;;;;;;;7.60;4.00;;;;;;;28.84;84.76;99347.87;107517;1256;69270;-71
2023/06/10 09:36:01;;;;;;;6.20;3.80;;;;;;;28.96;89.22;99335.52;104522;1257;72500;-68
2023/06/10 09:38:30;;;;;;;7.00;3.70;;;;;;;29.12;81.89;99345.10;104397;1258;60565;-69
2023/06/10 09:40:58;;;;;;;5.00;4.20;;;;;;;29.17;79.34;99348.91;104472;1256;60584;-69
2023/06/10 09:43:55;;;;;;;;;;;;;;;29.18;77.16;99343.05;104454;1260;73679;-67
2023/06/10 09:46:22;;;;;;;6.00;3.90;;;;;;;29.19;78.91;99334.48;104319;1259;69692;-69
2023/06/10 09:48:50;;;;;;;8.00;4.10;;;;;;;29.17;79.40;99337.24;104385;1271;72471;-68
2023/06/10 09:51:18;;;;;;;;;;;;;;;29.03;77.54;99336.08;104484;1256;59980;-71
2023/06/10 09:53:52;;;;;;;6.40;3.80;;;;;;;28.91;81.46;99329.37;104443;1256;60546;-68
2023/06/10 09:56:20;;;;;;;4.40;3.90;;;;;;;28.91;80.09;99328.93;104330;1260;74106;-70
2023/06/10 09:58:49;;;;;;;7.00;3.40;;;;;;;28.97;82.79;99325.63;104402;1263;69543;-67
2023/06/10 10:01:17;;;;;;;8.00;3.50;;;;;;;28.99;75.89;99325.23;104137;1264;72784;-70
2023/06/10 10:03:45;;;;;;;;;;;;;;;29.04;79.42;99324.52;104398;1270;60931;-71
2023/06/10 10:06:14;;;;;;;7.20;3.50;;;;;;;29.16;75.89;99320.96;104357;1256;60530;-67
2023/06/10 10:08:43;;;;;;;7.60;3.60;;;;;;;29.32;75.12;99318.55;104538;1259;74104;-69
2023/06/10 10:11:11;;;;;;;6.60;3.80;;;;;;;29.48;71.98;99316.48;104481;1254;69500;-67
2023/06/10 10:13:39;;;;;;;8.30;4.10;;;;;;;29.57;68.27;99319.21;104397;1259;72915;-70
2023/06/10 10:16:11;;;;;;;4.70;3.30;;;;;;;29.60;66.82;99316.80;105715;1254;60463;-70
2023/06/10 10:18:39;;;;;;;5.10;3.70;;;;;;;29.71;68.30;99312.91;104644;1256;60083;-70
2023/06/10 10:21:15;;;;;;;3.70;3.40;;;;;;;29.90;69.14;99310.56;104636;1260;73678;-69
2023/06/10 10:24:00;;;;;;;9.70;4.40;;;;;;;30.09;67.47;99311.00;104761;1254;69296;-69
2023/06/10 10:26:28;;;;;;;8.20;4.20;;;;;;;30.17;65.59;99310.23;104704;1269;72964;-70
2023/06/10 10:29:05;;;;;;;;;;;;;;;30.05;66.28;99310.77;104756;1259;60888;-69
2023/06/10 10:31:33;;;;;;;5.80;4.10;;;;;;;29.93;66.20;99310.20;104889;1254;60614;-71
2023/06/10 10:34:04;;;;;;;4.20;3.80;;;;;;;29.85;65.27;99306.91;104634;1262;74360;-69
2023/06/10 10:36:32;;;;;;;5.70;3.70;;;;;;;29.79;66.37;99311.48;104103;1263;69768;-68
2023/06/10 10:39:03;;;;;;;8.20;3.80;;;;;;;29.71;65.45;99311.00;104260;1257;72522;-68
2023/06/10 10:41:31;;;;;;;10.20;4.20;;;;;;;29.60;64.96;99311.87;104298;1260;60649;-71
2023/06/10 10:43:59;;;;;;;5.40;3.70;;;;;;;29.48;65.82;99316.48;104231;1253;60536;-68
2023/06/10 10:46:27;;;;;;;6.20;3.30;;;;;;;29.34;65.82;99317.70;104405;1254;73583;-70
2023/06/10 10:48:55;;;;;;;;;;;;;;;29.19;66.66;99312.83;104463;1256;70072;-69
2023/06/10 10:51:24;;;;;;;5.60;3.40;;;;;;;29.06;67.81;99313.51;104473;1256;71440;-69
2023/06/10 10:54:14;;;;;;;4.50;3.60;;;;;;;28.96;67.71;99315.24;104440;1256;60562;-69
2023/06/10 10:57:12;;;;;;;6.10;4.20;;;;;;;28.86;66.50;99313.27;104507;1256;60620;-70
2023/06/10 10:59:44;;;;;;;4.90;3.90;;;;;;;28.76;66.75;99311.17;108062;1253;73613;-68
2023/06/10 11:02:17;;;;;;;6.20;3.70;;;;;;;28.71;68.31;99312.58;105062;1256;69251;-70
2023/06/10 11:04:48;;;;;;;6.40;4.00;;;;;;;28.65;68.80;99309.41;104642;1256;73351;-68
2023/06/10 11:07:21;;;;;;;6.00;3.70;;;;;;;28.62;71.26;99310.10;104689;1253;60524;-67
2023/06/10 11:10:02;;;;;;;4.60;3.30;;;;;;;28.70;72.29;99304.20;104467;1259;60716;-67
2023/06/10 11:12:45;;;;;;;5.50;3.80;;;;;;;28.80;67.80;99303.02;104632;1255;73659;-68
2023/06/10 11:15:13;;;;;;;6.00;3.90;;;;;;;28.95;68.42;99298.59;104367;1272;69538;-70
2023/06/10 11:18:13;;;;;;;5.20;3.70;;;;;;;29.17;67.82;99291.90;104467;1263;73379;-69
2023/06/10 11:20:51;;;;;;;5.10;3.80;;;;;;;29.38;67.58;99288.88;105564;1253;60866;-69
2023/06/10 15:53:50;;;;;;;6.50;3.00;;;;;;;21.77;100.00;99370.27;101605;1293;600990;-71
2023/06/10 15:56:18;;;;;;;3.90;3.30;;;;;;;21.82;100.00;99379.21;104088;1260;59915;-69
2023/06/10 15:58:46;;;;;;;3.90;3.30;;;;;;;21.79;100.00;99380.91;103986;1265;60131;-70
2023/06/10 16:01:14;;;;;;;6.90;3.30;;;;;;;21.75;100.00;99381.76;104046;1269;71971;-69
2023/06/10 16:03:42;;;;;;;4.80;3.00;;;;;;;21.72;100.00;99387.45;104052;1263;68210;-68
2023/06/10 16:06:10;;;;;;;4.50;3.40;;;;;;;21.67;100.00;99392.60;103999;1265;72534;-68
2023/06/10 16:08:38;;;;;;;5.30;3.30;;;;;;;21.66;100.00;99392.88;104317;1262;189022;-71
2023/06/10 16:11:06;;;;;;;3.90;3.00;;;;;;;21.65;100.00;99395.77;104451;1258;59748;-71